createdAt,value
2023-06-08T00:01:49.089Z,12.57
2023-06-08T00:04:54.532Z,12.68
2023-06-08T00:07:58.300Z,12.76
2023-06-08T00:11:03.844Z,13.01
2023-06-08T00:14:07.377Z,13.21
2023-06-08T00:17:12.431Z,13.38
2023-06-08T00:20:17.065Z,13.53
2023-06-08T00:23:21.313Z,13.54
2023-06-08T00:26:24.849Z,13.59
2023-06-08T00:29:28.789Z,13.71
2023-06-08T00:32:33.219Z,13.98
2023-06-08T00:35:36.965Z,14.22
2023-06-08T00:38:41.893Z,14.48
2023-06-08T00:41:45.371Z,14.68
2023-06-08T00:44:49.621Z,14.91
2023-06-08T00:47:52.760Z,15.01
2023-06-08T00:50:58.386Z,15.28
2023-06-08T00:54:03.385Z,15.52
2023-06-08T00:57:08.211Z,15.52
2023-06-08T01:00:13.175Z,15.75
2023-06-08T01:03:17.730Z,16.14
2023-06-08T01:06:22.649Z,16.30
2023-06-08T01:09:41.496Z,16.52
2023-06-08T01:12:57.508Z,16.75
2023-06-08T01:16:05.884Z,16.97
2023-06-08T01:19:12.360Z,17.02
2023-06-08T01:22:58.390Z,17.24
2023-06-08T01:26:05.146Z,17.47
2023-06-08T01:29:11.662Z,17.67
2023-06-08T01:32:15.601Z,17.87
2023-06-08T01:35:20.134Z,18.01
2023-06-08T01:38:35.212Z,18.22
2023-06-08T01:41:47.117Z,18.37
2023-06-08T01:45:01.161Z,18.52
2023-06-08T01:48:06.529Z,18.64
2023-06-08T01:51:12.278Z,18.77
2023-06-08T01:54:17.242Z,18.96
2023-06-08T01:57:20.403Z,19.11
2023-06-08T02:00:25.004Z,19.05
2023-06-08T02:03:28.957Z,19.12
2023-06-08T02:06:32.813Z,19.25
2023-06-08T02:09:37.071Z,19.76
2023-06-08T02:12:41.704Z,20.75
2023-06-08T02:15:45.883Z,21.54
2023-06-08T02:18:51.884Z,22.05
2023-06-08T02:21:56.850Z,22.50
2023-06-08T02:24:59.967Z,22.60
2023-06-08T02:28:03.226Z,23.15
2023-06-08T02:31:06.867Z,23.32
2023-06-08T02:34:11.953Z,23.67
2023-06-08T02:37:17.404Z,24.03
2023-06-08T02:40:21.323Z,24.46
2023-06-08T02:43:24.975Z,24.81
2023-06-08T02:46:28.827Z,25.18
2023-06-08T02:49:32.674Z,25.44
2023-06-08T02:52:35.939Z,25.58
2023-06-08T02:55:40.114Z,26.04
2023-06-08T02:58:50.083Z,26.53
2023-06-08T03:01:56.895Z,26.87
2023-06-08T03:05:05.417Z,26.97
2023-06-08T03:08:10.109Z,27.50
2023-06-08T03:11:14.909Z,28.51
2023-06-08T03:14:20.283Z,29.03
2023-06-08T03:17:26.567Z,29.68
2023-06-08T03:20:30.094Z,29.46
2023-06-08T03:23:39.730Z,29.31
2023-06-08T03:26:44.261Z,29.17
2023-06-08T03:29:50.091Z,29.54
2023-06-08T03:32:55.062Z,30.06
2023-06-08T03:36:05.206Z,30.66
2023-06-08T03:39:15.696Z,30.92
2023-06-08T03:42:18.950Z,30.77
2023-06-08T03:45:28.585Z,30.54
2023-06-08T03:48:32.839Z,30.53
2023-06-08T03:51:39.378Z,31.26
2023-06-08T03:54:43.323Z,31.64
2023-06-08T03:57:47.771Z,32.08
2023-06-08T04:00:51.717Z,31.86
2023-06-08T04:03:55.247Z,31.81
2023-06-08T04:07:02.376Z,32.73
2023-06-08T04:10:06.631Z,32.12
2023-06-08T04:13:09.610Z,32.84
2023-06-08T04:16:15.314Z,33.30
2023-06-08T04:19:24.932Z,33.84
2023-06-08T04:22:29.357Z,34.73
2023-06-08T04:25:33.576Z,34.47
2023-06-08T04:28:37.614Z,34.32
2023-06-08T04:31:40.802Z,35.43
2023-06-08T04:34:46.131Z,35.78
2023-06-08T04:37:50.461Z,36.18
2023-06-08T04:40:56.013Z,35.70
2023-06-08T04:44:07.170Z,36.17
2023-06-08T04:47:12.591Z,36.78
2023-06-08T04:50:16.310Z,37.19
2023-06-08T04:53:23.363Z,36.76
2023-06-08T04:56:29.965Z,36.47
2023-06-08T04:59:33.226Z,36.65
2023-06-08T05:02:36.905Z,37.97
2023-06-08T05:05:41.020Z,39.19
2023-06-08T05:08:44.804Z,39.13
2023-06-08T05:11:49.264Z,39.52
2023-06-08T05:14:52.374Z,39.23
2023-06-08T05:17:57.236Z,36.57
2023-06-08T05:21:00.174Z,36.04
2023-06-08T05:24:03.557Z,37.38
2023-06-08T05:27:07.702Z,38.99
2023-06-08T05:30:11.781Z,39.20
2023-06-08T05:33:15.692Z,35.54
2023-06-08T05:36:19.774Z,37.84
2023-06-08T05:39:23.840Z,38.78
2023-06-08T05:42:26.878Z,39.71
2023-06-08T05:45:30.577Z,41.01
2023-06-08T05:48:33.656Z,41.36
2023-06-08T05:51:37.281Z,41.09
2023-06-08T05:54:40.493Z,36.10
2023-06-08T05:57:43.464Z,38.60
2023-06-08T06:00:46.898Z,40.45
2023-06-08T06:03:50.092Z,41.12
2023-06-08T06:06:53.997Z,42.03
2023-06-08T06:09:57.229Z,42.52
2023-06-08T06:13:00.678Z,41.60
2023-06-08T06:16:04.299Z,37.16
2023-06-08T06:19:07.436Z,35.66
2023-06-08T06:22:13.642Z,38.36
2023-06-08T06:25:17.393Z,41.12
2023-06-08T06:28:21.089Z,41.44
2023-06-08T06:31:24.903Z,42.11
2023-06-08T06:34:28.755Z,43.67
2023-06-08T06:37:36.647Z,39.00
2023-06-08T06:40:40.249Z,35.56
2023-06-08T06:43:44.446Z,36.56
2023-06-08T06:46:48.801Z,40.76
2023-06-08T06:49:53.097Z,42.54
2023-06-08T06:52:56.650Z,42.12
2023-06-08T06:56:01.133Z,42.71
2023-06-08T06:59:07.231Z,44.79
2023-06-08T07:02:11.422Z,39.49
2023-06-08T07:05:14.508Z,40.62
2023-06-08T07:08:19.301Z,41.73
2023-06-08T07:11:23.168Z,42.00
2023-06-08T07:14:27.325Z,42.66
2023-06-08T07:17:31.057Z,43.20
2023-06-08T07:20:34.723Z,43.86
2023-06-08T07:23:59.021Z,42.74
2023-06-08T07:27:02.424Z,42.95
2023-06-08T07:30:06.408Z,40.15
2023-06-08T07:33:10.249Z,42.24
2023-06-08T07:36:14.995Z,44.33
2023-06-08T07:39:18.400Z,40.57
2023-06-08T07:42:22.162Z,40.60
2023-06-08T07:45:26.794Z,41.98
2023-06-08T07:48:30.133Z,41.12
2023-06-08T07:51:33.880Z,36.12
2023-06-08T07:54:37.917Z,34.32
2023-06-08T07:57:42.572Z,39.22
2023-06-08T08:00:46.207Z,42.40
2023-06-08T08:03:50.576Z,42.72
2023-06-08T08:06:54.043Z,43.56
2023-06-08T08:09:57.715Z,43.69
2023-06-08T08:13:02.918Z,40.66
2023-06-08T08:16:06.898Z,41.02
2023-06-08T08:19:10.010Z,42.40
2023-06-08T08:22:15.328Z,43.59
2023-06-08T08:25:19.657Z,44.58
2023-06-08T08:28:24.041Z,44.63
2023-06-08T08:31:27.796Z,44.41
2023-06-08T08:34:31.659Z,44.04
2023-06-08T08:37:36.130Z,43.49
2023-06-08T08:40:42.960Z,44.13
2023-06-08T08:43:53.106Z,44.32
2023-06-08T08:47:04.089Z,43.87
2023-06-08T08:50:19.174Z,43.46
2023-06-08T08:53:29.238Z,42.75
2023-06-08T08:56:39.773Z,41.52
2023-06-08T08:59:46.921Z,41.28
2023-06-08T09:02:52.408Z,42.52
2023-06-08T09:05:56.285Z,42.38
2023-06-08T09:08:59.803Z,41.36
2023-06-08T09:12:06.695Z,40.10
2023-06-08T09:15:14.009Z,40.70
2023-06-08T09:18:19.189Z,41.71
2023-06-08T09:21:29.334Z,40.84
2023-06-08T09:24:32.385Z,40.99
2023-06-08T09:27:35.730Z,40.75
2023-06-08T09:30:39.832Z,39.85
2023-06-08T09:33:44.497Z,39.72
2023-06-08T09:36:50.703Z,39.36
2023-06-08T09:39:55.771Z,38.66
2023-06-08T09:42:59.833Z,38.39
2023-06-08T09:46:03.466Z,38.15
2023-06-08T09:49:09.491Z,37.25
2023-06-08T09:52:13.747Z,36.57
2023-06-08T09:55:18.740Z,35.67
2023-06-08T09:58:29.048Z,34.99
2023-06-08T10:02:11.375Z,34.09
2023-06-08T10:05:21.965Z,32.61
2023-06-08T10:08:28.994Z,31.32
2023-06-08T10:11:33.721Z,30.56
2023-06-08T10:14:38.119Z,30.40
2023-06-08T10:17:42.959Z,30.20
2023-06-08T10:20:47.850Z,29.72
2023-06-08T10:23:52.101Z,29.53
2023-06-08T10:27:31.580Z,29.14
2023-06-08T10:30:43.772Z,28.85
2023-06-08T10:33:48.058Z,28.50
2023-06-08T10:36:51.859Z,28.39
2023-06-08T10:39:55.308Z,28.31
2023-06-08T10:43:15.067Z,28.99
2023-06-08T10:46:42.723Z,29.33
2023-06-08T10:49:47.246Z,28.58
2023-06-08T10:52:50.634Z,28.10
2023-06-08T10:55:54.791Z,27.79
2023-06-08T10:58:58.922Z,27.38
2023-06-08T11:02:07.009Z,27.10
2023-06-08T11:05:11.723Z,27.03
2023-06-08T11:08:15.043Z,26.93
2023-06-08T11:11:18.886Z,26.77
2023-06-08T11:14:23.286Z,26.47
2023-06-08T11:17:27.110Z,26.35
2023-06-08T11:20:31.828Z,26.48
2023-06-08T11:23:39.435Z,26.93
2023-06-08T11:26:52.215Z,26.50
2023-06-08T11:30:07.970Z,26.46
2023-06-08T11:33:19.493Z,26.22
2023-06-08T11:36:24.431Z,25.64
2023-06-08T11:39:34.448Z,25.19
2023-06-08T11:42:39.782Z,24.81
2023-06-08T11:45:43.831Z,24.59
2023-06-08T11:48:48.465Z,24.53
2023-06-08T11:51:52.701Z,24.27
2023-06-08T11:54:57.932Z,24.09
2023-06-08T11:58:02.314Z,23.88
2023-06-08T12:01:13.176Z,23.70
2023-06-08T12:04:17.268Z,23.45
2023-06-08T12:07:20.809Z,23.34
2023-06-08T12:10:26.602Z,23.21
2023-06-08T12:13:32.705Z,23.14
2023-06-08T12:16:44.925Z,23.03
2023-06-08T12:19:48.005Z,22.85
2023-06-08T12:22:51.970Z,22.73
2023-06-08T12:25:55.695Z,22.60
2023-06-08T12:29:10.974Z,22.48
2023-06-08T12:32:15.223Z,22.28
2023-06-08T12:35:20.756Z,22.17
2023-06-08T12:38:26.505Z,21.98
2023-06-08T12:41:30.225Z,21.84
2023-06-08T12:44:34.488Z,21.77
2023-06-08T12:47:39.597Z,21.67
2023-06-08T12:50:43.800Z,21.51
2023-06-08T12:53:47.918Z,21.37
2023-06-08T12:56:51.363Z,21.17
2023-06-08T12:59:54.355Z,21.08
2023-06-08T13:02:59.768Z,21.00
2023-06-08T13:06:04.232Z,20.88
2023-06-08T13:09:09.177Z,20.75
2023-06-08T13:12:13.403Z,20.74
2023-06-08T13:15:17.674Z,20.60
2023-06-08T13:18:20.881Z,20.59
2023-06-08T13:21:24.966Z,20.45
2023-06-08T13:24:29.147Z,20.33
2023-06-08T13:27:33.125Z,20.15
2023-06-08T13:30:37.496Z,19.99
2023-06-08T13:33:41.225Z,19.91
2023-06-08T13:36:45.712Z,19.73
2023-06-08T13:39:49.108Z,19.61
2023-06-08T13:42:52.987Z,19.56
2023-06-08T13:45:59.827Z,19.47
2023-06-08T13:49:04.499Z,19.50
2023-06-08T13:52:08.806Z,19.34
2023-06-08T13:55:13.055Z,19.20
2023-06-08T13:58:17.029Z,19.14
2023-06-08T14:01:21.028Z,19.05
2023-06-08T14:04:24.985Z,18.96
2023-06-08T14:07:29.231Z,18.85
2023-06-08T14:10:33.080Z,18.77
2023-06-08T14:13:37.272Z,18.70
2023-06-08T14:16:41.261Z,18.61
2023-06-08T14:19:45.425Z,18.57
2023-06-08T14:22:49.274Z,18.47
2023-06-08T14:25:52.816Z,18.33
2023-06-08T14:28:56.894Z,18.27
2023-06-08T14:32:00.179Z,18.17
2023-06-08T14:35:04.402Z,18.02
2023-06-08T14:38:12.776Z,17.87
2023-06-08T14:41:17.028Z,17.67
2023-06-08T14:44:20.430Z,17.68
2023-06-08T14:47:24.351Z,17.64
2023-06-08T14:50:29.815Z,17.60
2023-06-08T14:53:33.399Z,17.54
2023-06-08T14:56:37.781Z,17.44
2023-06-08T14:59:42.356Z,17.31
2023-06-08T15:02:46.187Z,17.25
2023-06-08T15:05:50.395Z,17.19
2023-06-08T15:08:53.573Z,17.16
2023-06-08T15:11:57.325Z,17.09
2023-06-08T15:15:01.227Z,17.01
2023-06-08T15:18:04.906Z,16.95
2023-06-08T15:21:08.938Z,16.84
2023-06-08T15:24:13.322Z,16.76
2023-06-08T15:27:17.514Z,16.64
2023-06-08T15:30:21.343Z,16.54
2023-06-08T15:33:25.321Z,16.43
2023-06-08T15:36:29.942Z,16.22
2023-06-08T15:39:34.067Z,16.10
2023-06-08T15:42:37.440Z,15.94
2023-06-08T15:45:41.487Z,15.86
2023-06-08T15:48:49.971Z,15.87
2023-06-08T15:51:54.038Z,15.86
2023-06-08T15:54:58.220Z,15.84
2023-06-08T15:58:01.397Z,15.84
2023-06-08T16:01:05.082Z,15.70
2023-06-08T16:04:08.804Z,15.53
2023-06-08T16:07:12.881Z,15.48
2023-06-08T16:10:16.654Z,15.43
2023-06-08T16:13:20.576Z,15.44
2023-06-08T16:16:25.491Z,15.42
2023-06-08T16:19:29.563Z,15.41
2023-06-08T16:22:33.323Z,15.26
2023-06-08T16:25:38.528Z,15.13
2023-06-08T16:28:41.995Z,15.12
2023-06-08T16:31:50.193Z,15.12
2023-06-08T16:34:54.504Z,15.13
2023-06-08T16:37:58.475Z,14.99
2023-06-08T16:41:02.367Z,14.91
2023-06-08T16:44:07.311Z,14.82
2023-06-08T16:47:12.613Z,14.79
2023-06-08T16:50:16.712Z,14.78
2023-06-08T16:53:20.466Z,14.73
2023-06-08T16:56:28.680Z,14.63
2023-06-08T16:59:32.309Z,14.60
2023-06-08T17:02:36.219Z,14.57
2023-06-08T17:05:40.301Z,14.62
2023-06-08T17:08:44.137Z,14.62
2023-06-08T17:11:47.927Z,14.53
2023-06-08T17:14:51.673Z,14.48
2023-06-08T17:17:55.139Z,14.42
2023-06-08T17:20:59.246Z,14.35
2023-06-08T17:24:03.406Z,14.33
2023-06-08T17:27:08.565Z,14.26
2023-06-08T17:30:12.738Z,14.22
2023-06-08T17:33:17.342Z,14.15
2023-06-08T17:36:20.440Z,14.08
2023-06-08T17:39:23.876Z,14.03
2023-06-08T17:42:26.963Z,13.97
2023-06-08T17:45:30.746Z,13.99
2023-06-08T17:48:34.607Z,13.94
2023-06-08T17:51:40.176Z,13.86
2023-06-08T17:54:43.313Z,13.81
2023-06-08T17:57:47.404Z,13.76
2023-06-08T18:00:51.339Z,13.73
2023-06-08T18:03:55.027Z,13.70
2023-06-08T18:06:58.896Z,13.63
2023-06-08T18:10:02.888Z,13.58
2023-06-08T18:13:06.544Z,13.55
2023-06-08T18:16:10.305Z,13.37
2023-06-08T18:19:14.110Z,13.31
2023-06-08T18:22:17.256Z,13.13
2023-06-08T18:25:21.312Z,13.06
2023-06-08T18:28:25.338Z,13.05
2023-06-08T18:31:30.457Z,12.88
2023-06-08T18:34:34.142Z,12.74
2023-06-08T18:37:38.500Z,12.66
2023-06-08T18:40:42.654Z,12.68
2023-06-08T18:43:46.260Z,12.73
2023-06-08T18:46:49.955Z,12.59
2023-06-08T18:49:53.430Z,12.57
2023-06-08T18:52:56.516Z,12.57
2023-06-08T18:56:00.791Z,12.53
2023-06-08T18:59:05.129Z,12.53
2023-06-08T19:02:09.018Z,12.49
2023-06-08T19:05:12.650Z,12.24
2023-06-08T19:08:16.903Z,12.17
2023-06-08T19:11:20.389Z,12.07
2023-06-08T19:14:24.623Z,12.08
2023-06-08T19:17:28.571Z,12.08
2023-06-08T19:20:32.732Z,11.99
2023-06-08T19:23:36.601Z,11.88
2023-06-08T19:26:40.789Z,11.84
2023-06-08T19:29:44.757Z,11.61
2023-06-08T19:32:47.924Z,11.58
2023-06-08T19:35:51.499Z,11.63
2023-06-08T19:38:55.589Z,11.50
2023-06-08T19:42:04.427Z,11.43
2023-06-08T19:45:09.144Z,11.40
2023-06-08T19:48:13.656Z,11.38
2023-06-08T19:51:16.815Z,11.37
2023-06-08T19:54:23.628Z,11.36
2023-06-08T19:57:27.707Z,11.31
2023-06-08T20:00:31.527Z,11.34
2023-06-08T20:03:35.988Z,11.29
2023-06-08T20:06:48.256Z,11.00
2023-06-08T20:09:52.196Z,11.07
2023-06-08T20:13:02.056Z,11.09
2023-06-08T20:16:06.027Z,11.10
2023-06-08T20:19:09.550Z,11.08
2023-06-08T20:22:13.382Z,10.99
2023-06-08T20:25:16.979Z,11.05
2023-06-08T20:28:20.718Z,11.11
2023-06-08T20:31:25.170Z,11.16
2023-06-08T20:34:28.296Z,11.11
2023-06-08T20:37:31.954Z,11.04
2023-06-08T20:40:34.941Z,11.05
2023-06-08T20:43:39.147Z,10.91
2023-06-08T20:46:42.977Z,10.79
2023-06-08T20:49:46.016Z,10.77
2023-06-08T20:52:49.148Z,10.78
2023-06-08T20:55:52.366Z,10.82
2023-06-08T20:58:55.435Z,10.88
2023-06-08T21:01:59.264Z,11.02
2023-06-08T21:05:03.232Z,11.12
2023-06-08T21:08:07.990Z,11.13
2023-06-08T21:11:11.918Z,11.13
2023-06-08T21:14:15.658Z,11.16
2023-06-08T21:17:19.396Z,11.34
2023-06-08T21:20:23.010Z,11.43
2023-06-08T21:23:27.058Z,11.54
2023-06-08T21:26:35.480Z,11.50
2023-06-08T21:29:38.617Z,11.69
2023-06-08T21:32:42.773Z,12.94
2023-06-08T21:35:51.936Z,14.69
2023-06-08T21:39:05.932Z,13.30
2023-06-08T21:42:11.877Z,12.78
2023-06-08T21:45:16.007Z,12.58
2023-06-08T21:48:19.938Z,12.28
2023-06-08T21:51:24.050Z,12.14
2023-06-08T21:54:28.027Z,12.39
2023-06-08T21:57:32.163Z,12.80
2023-06-08T22:00:35.901Z,12.70
2023-06-08T22:03:40.738Z,12.63
2023-06-08T22:06:44.374Z,12.65
2023-06-08T22:09:47.808Z,12.56
2023-06-08T22:12:56.019Z,12.63
2023-06-08T22:16:00.136Z,12.72
2023-06-08T22:19:04.367Z,13.20
2023-06-08T22:22:08.373Z,12.94
2023-06-08T22:25:12.628Z,12.98
2023-06-08T22:28:18.134Z,12.92
2023-06-08T22:31:22.269Z,13.23
2023-06-08T22:34:27.083Z,13.41
2023-06-08T22:37:30.938Z,13.43
2023-06-08T22:40:35.312Z,13.30
2023-06-08T22:43:39.324Z,13.37
2023-06-08T22:46:43.519Z,13.99
2023-06-08T22:49:50.340Z,14.06
2023-06-08T22:52:57.711Z,14.13
2023-06-08T22:56:02.001Z,14.33
2023-06-08T22:59:05.411Z,14.38
2023-06-08T23:02:08.599Z,14.48
2023-06-08T23:05:12.981Z,14.48
2023-06-08T23:08:16.745Z,14.76
2023-06-08T23:11:26.423Z,14.91
2023-06-08T23:14:33.911Z,15.42
2023-06-08T23:17:38.289Z,15.89
2023-06-08T23:20:42.054Z,15.82
2023-06-08T23:23:46.687Z,15.76
2023-06-08T23:26:49.807Z,15.85
2023-06-08T23:29:53.924Z,16.21
2023-06-08T23:32:57.979Z,16.40
2023-06-08T23:36:03.168Z,16.32
2023-06-08T23:39:06.204Z,16.24
2023-06-08T23:42:10.081Z,16.32
2023-06-08T23:45:13.826Z,16.41
2023-06-08T23:48:18.838Z,16.74
2023-06-08T23:51:22.625Z,17.03
2023-06-08T23:54:26.910Z,17.24
2023-06-08T23:57:30.093Z,17.57
